Time;durP1;ratioP1;P1;durP2;ratioP2;P2;SDS_P1;SDS_P2;PMS_P1;PMS_P2;Temp;Humidity;BMP_temperature;BMP_pressure;BME280_temperature;BME280_humidity;BME280_pressure;Samples;Min_cycle;Max_cycle;Signal;HPM_P1;HPM_P2
2023/12/05 00:00:10;;;;;;;17.00;11.30;;;-0.30;99.90;;;;;;4923205;29;20201;-90
2023/12/05 00:02:36;;;;;;;17.93;11.90;;;-0.30;99.90;;;;;;4924001;29;20237;-89
2023/12/05 00:05:02;;;;;;;21.07;11.77;;;-0.30;99.90;;;;;;4920492;29;20277;-90
2023/12/05 00:07:28;;;;;;;18.63;11.20;;;-0.30;99.90;;;;;;4933731;29;20228;-89
2023/12/05 00:09:55;;;;;;;27.07;11.90;;;-0.30;99.90;;;;;;4920909;29;20218;-90
2023/12/05 00:12:21;;;;;;;17.80;10.60;;;-0.30;99.90;;;;;;4914797;29;20218;-89
2023/12/05 00:14:47;;;;;;;18.23;11.90;;;-0.30;99.90;;;;;;4926772;29;20213;-89
2023/12/05 00:17:12;;;;;;;24.27;12.80;;;-0.30;99.90;;;;;;4925937;29;20273;-91
2023/12/05 00:19:38;;;;;;;18.07;11.60;;;-0.30;99.90;;;;;;4925840;29;20539;-89
2023/12/05 00:22:04;;;;;;;20.40;11.63;;;-0.30;99.90;;;;;;4933796;29;20296;-91
2023/12/05 00:24:29;;;;;;;20.63;12.33;;;-0.30;99.90;;;;;;4932038;29;20178;-87
2023/12/05 00:26:55;;;;;;;20.10;12.13;;;-0.30;99.90;;;;;;4914612;29;20214;-87
2023/12/05 00:29:21;;;;;;;22.97;12.97;;;-0.30;99.90;;;;;;4922882;29;20189;-88
2023/12/05 00:31:47;;;;;;;19.13;12.00;;;-0.30;99.90;;;;;;4915749;29;20671;-90
2023/12/05 00:34:13;;;;;;;18.87;12.00;;;-0.30;99.90;;;;;;4917222;29;20205;-89
2023/12/05 00:36:38;;;;;;;19.60;11.77;;;-0.30;99.90;;;;;;4925428;29;20198;-88
2023/12/05 00:39:04;;;;;;;21.53;12.73;;;-0.30;99.90;;;;;;4918959;29;20195;-90
2023/12/05 00:41:30;;;;;;;19.60;12.17;;;-0.30;99.90;;;;;;4916238;29;20712;-88
2023/12/05 00:43:56;;;;;;;23.00;13.20;;;-0.30;99.90;;;;;;4920442;29;20628;-88
2023/12/05 00:46:22;;;;;;;19.50;11.93;;;-0.30;99.90;;;;;;4923260;29;20217;-90
2023/12/05 00:48:48;;;;;;;18.20;12.03;;;-0.30;99.90;;;;;;4914351;29;20666;-89
2023/12/05 00:51:14;;;;;;;19.17;12.30;;;-0.30;99.90;;;;;;4925720;29;20225;-89
2023/12/05 00:53:40;;;;;;;22.13;12.90;;;-0.30;99.90;;;;;;4914355;29;20205;-89
2023/12/05 00:56:15;;;;;;;18.60;12.30;;;-0.30;99.90;;;;;;4914683;29;20653;-89
2023/12/05 00:58:41;;;;;;;20.50;12.70;;;-0.30;99.90;;;;;;4913415;29;20193;-89
2023/12/05 01:01:07;;;;;;;18.13;12.03;;;-0.30;99.90;;;;;;4929697;29;20562;-89
2023/12/05 01:03:33;;;;;;;21.53;12.57;;;-0.30;99.90;;;;;;4920094;29;20717;-90
2023/12/05 01:05:59;;;;;;;23.13;13.70;;;-0.30;99.90;;;;;;4931244;29;20269;-89
2023/12/05 01:08:25;;;;;;;25.60;13.50;;;-0.30;99.90;;;;;;4936499;29;20201;-90
2023/12/05 01:10:50;;;;;;;20.80;13.13;;;-0.30;99.90;;;;;;4930600;29;20190;-89
2023/12/05 01:13:16;;;;;;;20.47;12.87;;;-0.40;99.90;;;;;;4929715;29;20193;-89
2023/12/05 01:15:42;;;;;;;21.50;12.83;;;-0.40;99.90;;;;;;4920949;29;20204;-89
2023/12/05 01:18:07;;;;;;;22.20;13.47;;;-0.40;99.90;;;;;;4921807;29;20315;-90
2023/12/05 01:20:33;;;;;;;22.57;13.90;;;-0.40;99.90;;;;;;4919927;29;20269;-89
2023/12/05 01:22:59;;;;;;;21.50;13.43;;;-0.40;99.90;;;;;;4928497;29;20225;-90
2023/12/05 01:25:25;;;;;;;21.33;13.67;;;-0.40;99.90;;;;;;4921051;29;20360;-90
2023/12/05 01:27:51;;;;;;;24.27;13.67;;;-0.40;99.90;;;;;;4924096;29;20227;-87
2023/12/05 01:30:17;;;;;;;24.57;14.00;;;-0.40;99.90;;;;;;4933540;29;20194;-87
2023/12/05 01:32:43;;;;;;;20.80;13.13;;;-0.40;99.90;;;;;;4924527;29;20332;-92
2023/12/05 01:35:09;;;;;;;23.70;13.70;;;-0.40;99.90;;;;;;4932084;29;20200;-90
2023/12/05 01:37:38;;;;;;;21.47;13.67;;;-0.40;99.90;;;;;;4928703;29;20197;-89
2023/12/05 01:40:06;;;;;;;21.47;13.70;;;-0.40;99.90;;;;;;4935622;29;20596;-90
2023/12/05 01:42:38;;;;;;;20.80;13.67;;;-0.40;99.90;;;;;;4929549;29;20202;-88
2023/12/05 01:45:06;;;;;;;22.20;13.10;;;-0.40;99.90;;;;;;4922690;29;20191;-89
2023/12/05 01:47:35;;;;;;;25.57;14.33;;;-0.40;99.90;;;;;;4917207;29;20195;-90
2023/12/05 01:50:04;;;;;;;21.43;13.37;;;-0.40;99.90;;;;;;4916695;29;20238;-90
2023/12/05 01:52:31;;;;;;;20.73;13.00;;;-0.40;99.90;;;;;;4924430;29;20218;-89
2023/12/05 01:54:57;;;;;;;19.83;12.60;;;-0.40;99.90;;;;;;4925989;29;20214;-90
2023/12/05 01:57:24;;;;;;;19.37;12.40;;;-0.40;99.90;;;;;;4917018;29;20262;-89
2023/12/05 01:59:52;;;;;;;20.77;12.17;;;-0.40;99.90;;;;;;4916962;29;20203;-90
2023/12/05 02:02:18;;;;;;;21.17;12.53;;;-0.40;99.90;;;;;;4924560;29;20245;-89
2023/12/05 02:04:44;;;;;;;20.93;12.93;;;-0.40;99.90;;;;;;4928560;29;20273;-90
2023/12/05 02:07:12;;;;;;;20.23;12.13;;;-0.40;99.90;;;;;;4929942;29;20289;-88
2023/12/05 02:09:37;;;;;;;19.97;12.80;;;-0.40;99.90;;;;;;4919810;29;20802;-90
2023/12/05 02:12:04;;;;;;;20.63;12.23;;;-0.40;99.90;;;;;;4923181;29;20300;-88
2023/12/05 02:14:30;;;;;;;20.73;12.80;;;-0.40;99.90;;;;;;4919798;29;20663;-90
2023/12/05 02:17:09;;;;;;;19.13;12.17;;;-0.40;99.90;;;;;;4916519;29;20484;-90
2023/12/05 02:20:00;;;;;;;20.87;12.73;;;-0.40;99.90;;;;;;4915938;29;20225;-91
2023/12/05 02:22:49;;;;;;;21.20;12.63;;;-0.40;99.90;;;;;;4917815;29;20717;-89
2023/12/05 02:25:50;;;;;;;20.77;12.27;;;-0.40;99.90;;;;;;4899623;29;20232;-90
2023/12/05 02:28:16;;;;;;;24.43;12.27;;;-0.30;99.90;;;;;;4927398;29;20198;-87
2023/12/05 02:30:42;;;;;;;18.80;11.40;;;-0.40;99.90;;;;;;4924078;29;20199;-89
2023/12/05 02:33:08;;;;;;;18.43;12.03;;;-0.40;99.90;;;;;;4926743;29;20313;-87
2023/12/05 02:35:33;;;;;;;18.50;11.47;;;-0.40;99.90;;;;;;4926457;29;20669;-90
2023/12/05 02:38:07;;;;;;;21.23;12.67;;;-0.40;99.90;;;;;;4927038;29;20228;-91
2023/12/05 02:40:55;;;;;;;18.80;11.67;;;-0.40;99.90;;;;;;4927055;29;20662;-89
2023/12/05 02:43:32;;;;;;;19.20;11.23;;;-0.40;99.90;;;;;;4934918;29;20209;-91
2023/12/05 02:45:59;;;;;;;22.27;12.70;;;-0.40;99.90;;;;;;4921141;29;20214;-89
2023/12/05 02:48:27;;;;;;;21.00;12.70;;;-0.40;99.90;;;;;;4916902;29;20190;-88
2023/12/05 02:50:53;;;;;;;23.17;12.80;;;-0.40;99.90;;;;;;4921877;29;20198;-90
2023/12/05 02:53:19;;;;;;;22.30;12.67;;;-0.40;99.90;;;;;;4916309;29;20190;-90
2023/12/05 02:55:46;;;;;;;23.03;14.17;;;-0.40;99.90;;;;;;4926949;29;20241;-88
2023/12/05 02:58:12;;;;;;;20.23;12.90;;;-0.50;99.90;;;;;;4919102;29;20204;-89
2023/12/05 03:00:38;;;;;;;24.73;13.13;;;-0.50;99.90;;;;;;4915388;29;20198;-89
2023/12/05 03:03:03;;;;;;;22.90;13.80;;;-0.40;99.90;;;;;;4915131;29;20250;-91
2023/12/05 03:05:29;;;;;;;19.50;12.47;;;-0.50;99.90;;;;;;4932775;29;20210;-89
2023/12/05 03:07:56;;;;;;;24.23;14.40;;;-0.40;99.90;;;;;;4935697;29;20181;-90
2023/12/05 03:10:21;;;;;;;21.10;13.07;;;-0.50;99.90;;;;;;4931878;29;20194;-90
2023/12/05 03:12:48;;;;;;;23.67;14.20;;;-0.40;99.90;;;;;;4930068;29;20213;-89
2023/12/05 03:15:14;;;;;;;20.60;13.23;;;-0.50;99.90;;;;;;4923285;29;20181;-89
2023/12/05 03:17:40;;;;;;;22.83;13.50;;;-0.50;99.90;;;;;;4916140;29;20246;-91
2023/12/05 03:20:07;;;;;;;22.67;13.57;;;-0.50;99.90;;;;;;4914742;29;20186;-90
2023/12/05 03:22:33;;;;;;;21.20;12.83;;;-0.50;99.90;;;;;;4915537;29;20222;-88
2023/12/05 03:24:59;;;;;;;22.67;14.03;;;-0.50;99.90;;;;;;4915748;29;20183;-91
2023/12/05 03:27:24;;;;;;;21.80;13.50;;;-0.50;99.90;;;;;;4922921;29;20309;-90
2023/12/05 03:29:50;;;;;;;23.30;13.37;;;-0.50;99.90;;;;;;4915098;29;20214;-89
2023/12/05 03:32:16;;;;;;;23.27;13.90;;;-0.50;99.90;;;;;;4930557;29;20859;-88
2023/12/05 03:34:42;;;;;;;21.43;12.93;;;-0.50;99.90;;;;;;4919770;29;20229;-89
2023/12/05 03:37:08;;;;;;;22.50;13.83;;;-0.60;99.90;;;;;;4929954;29;20225;-90
2023/12/05 03:39:34;;;;;;;24.30;14.20;;;-0.50;99.90;;;;;;4926339;29;20228;-90
2023/12/05 03:42:00;;;;;;;23.17;14.40;;;-0.50;99.90;;;;;;4919989;29;20217;-91
2023/12/05 03:44:26;;;;;;;23.53;14.37;;;-0.50;99.90;;;;;;4914721;29;20175;-91
2023/12/05 03:46:52;;;;;;;20.63;13.27;;;-0.50;99.90;;;;;;4919624;29;20206;-91
2023/12/05 03:49:19;;;;;;;24.63;14.07;;;-0.50;99.90;;;;;;4933039;29;20675;-88
2023/12/05 03:51:45;;;;;;;22.50;13.87;;;-0.50;99.90;;;;;;4922267;29;20214;-91
2023/12/05 03:54:10;;;;;;;22.53;14.10;;;-0.50;99.90;;;;;;4916076;29;20182;-92
2023/12/05 03:56:36;;;;;;;23.77;14.20;;;-0.50;99.90;;;;;;4925334;29;20216;-87
2023/12/05 03:59:02;;;;;;;23.40;14.47;;;-0.50;99.90;;;;;;4934040;29;20693;-89
2023/12/05 04:01:27;;;;;;;23.83;14.13;;;-0.50;99.90;;;;;;4925265;29;20213;-87
2023/12/05 04:03:53;;;;;;;22.23;13.73;;;-0.50;99.90;;;;;;4919706;29;20242;-94
2023/12/05 04:06:22;;;;;;;26.70;13.53;;;-0.60;99.90;;;;;;4922731;29;20214;-90
2023/12/05 04:08:51;;;;;;;26.00;15.03;;;-0.50;99.90;;;;;;4919200;29;20208;-89
2023/12/05 04:11:28;;;;;;;24.43;14.53;;;-0.50;99.90;;;;;;4925541;29;20210;-89
2023/12/05 04:13:54;;;;;;;25.23;14.53;;;-0.50;99.90;;;;;;4925735;29;20204;-89
2023/12/05 04:16:20;;;;;;;28.30;15.33;;;-0.50;99.90;;;;;;4925560;29;20194;-90
2023/12/05 04:18:46;;;;;;;24.10;15.00;;;-0.50;99.90;;;;;;4934368;29;20310;-88
2023/12/05 04:21:11;;;;;;;23.33;14.70;;;-0.50;99.90;;;;;;4927917;29;20229;-90
2023/12/05 04:23:37;;;;;;;24.90;15.17;;;-0.50;99.90;;;;;;4925177;29;20194;-88
2023/12/05 04:26:03;;;;;;;24.50;15.43;;;-0.50;99.90;;;;;;4927084;29;20217;-89
2023/12/05 04:28:31;;;;;;;22.27;14.80;;;-0.60;99.90;;;;;;4925329;29;20238;-92
2023/12/05 04:30:57;;;;;;;27.13;15.97;;;-0.50;99.90;;;;;;4925305;29;20196;-89
2023/12/05 04:33:23;;;;;;;27.00;15.70;;;-0.50;99.90;;;;;;4924131;29;20186;-88
2023/12/05 04:35:49;;;;;;;23.33;14.47;;;-0.60;99.90;;;;;;4922329;29;20190;-88
2023/12/05 04:38:15;;;;;;;29.10;16.10;;;-0.50;99.90;;;;;;4928754;29;20194;-90
2023/12/05 04:40:41;;;;;;;23.77;15.63;;;-0.50;99.90;;;;;;4899425;29;20548;-89
2023/12/05 04:43:07;;;;;;;23.30;14.60;;;-0.50;99.90;;;;;;4928186;29;20218;-89
2023/12/05 04:45:32;;;;;;;26.73;16.33;;;-0.50;99.90;;;;;;4928839;29;20241;-91
2023/12/05 04:47:58;;;;;;;26.97;15.73;;;-0.50;99.90;;;;;;4928666;29;20209;-89
2023/12/05 04:50:24;;;;;;;27.87;16.40;;;-0.50;99.90;;;;;;4927253;29;20197;-90
2023/12/05 04:52:49;;;;;;;25.33;16.03;;;-0.50;99.90;;;;;;4917371;29;20754;-90
2023/12/05 04:55:15;;;;;;;27.47;16.07;;;-0.50;99.90;;;;;;4917705;29;20245;-89
2023/12/05 04:57:40;;;;;;;28.03;16.07;;;-0.50;99.90;;;;;;4925338;29;20564;-88
2023/12/05 05:00:08;;;;;;;28.37;15.70;;;-0.50;99.90;;;;;;4925239;29;20190;-89
2023/12/05 05:02:34;;;;;;;28.40;17.00;;;-0.50;99.90;;;;;;4918019;29;20596;-88
2023/12/05 05:05:03;;;;;;;25.47;16.20;;;-0.50;99.90;;;;;;4930884;29;20241;-90
2023/12/05 05:07:29;;;;;;;27.03;16.60;;;-0.50;99.90;;;;;;4920580;29;20253;-88
2023/12/05 05:09:54;;;;;;;26.77;16.03;;;-0.50;99.90;;;;;;4931183;29;20260;-89
2023/12/05 05:12:20;;;;;;;27.47;16.37;;;-0.50;99.90;;;;;;4917312;29;20216;-91
2023/12/05 05:14:46;;;;;;;26.17;16.00;;;-0.50;99.90;;;;;;4917484;29;20693;-91
2023/12/05 05:17:11;;;;;;;29.40;17.10;;;-0.50;99.90;;;;;;4924473;29;20602;-89
2023/12/05 05:19:37;;;;;;;28.83;17.00;;;-0.50;99.90;;;;;;4934560;29;20280;-88
2023/12/05 05:22:03;;;;;;;29.60;17.60;;;-0.50;99.90;;;;;;4930375;29;20599;-89
2023/12/05 05:24:29;;;;;;;28.83;16.33;;;-0.50;99.90;;;;;;4916212;29;20682;-91
2023/12/05 05:26:55;;;;;;;26.90;16.77;;;-0.40;99.90;;;;;;4916744;29;20214;-91
2023/12/05 05:29:21;;;;;;;28.50;18.23;;;-0.50;99.90;;;;;;4920294;29;20194;-86
2023/12/05 05:31:47;;;;;;;25.37;16.00;;;-0.50;99.90;;;;;;4937000;29;20292;-90
2023/12/05 05:34:13;;;;;;;26.80;15.93;;;-0.40;99.90;;;;;;4924489;29;20242;-88
2023/12/05 05:36:38;;;;;;;27.27;17.00;;;-0.40;99.90;;;;;;4928211;29;20245;-88
2023/12/05 05:39:07;;;;;;;26.60;16.53;;;-0.40;99.90;;;;;;4936729;29;20197;-90
2023/12/05 05:41:33;;;;;;;27.67;17.23;;;-0.40;99.90;;;;;;4925572;29;20214;-88
2023/12/05 05:43:59;;;;;;;29.63;17.17;;;-0.40;99.90;;;;;;4930008;29;20193;-87
2023/12/05 05:46:24;;;;;;;29.03;17.60;;;-0.40;99.90;;;;;;4927845;29;20214;-88
2023/12/05 05:48:50;;;;;;;29.30;17.27;;;-0.40;99.90;;;;;;4923290;29;20198;-89
2023/12/05 05:51:16;;;;;;;28.07;17.20;;;-0.40;99.90;;;;;;4916646;29;20236;-88
2023/12/05 05:53:41;;;;;;;29.07;17.13;;;-0.40;99.90;;;;;;4924702;29;20187;-91
2023/12/05 05:56:08;;;;;;;27.80;17.10;;;-0.40;99.90;;;;;;4916677;29;20269;-88
2023/12/05 05:58:34;;;;;;;27.20;17.50;;;-0.40;99.90;;;;;;4924811;29;20202;-88
2023/12/05 06:01:00;;;;;;;26.43;17.13;;;-0.40;99.90;;;;;;4918602;29;20213;-87
2023/12/05 06:03:28;;;;;;;35.73;17.57;;;-0.50;99.90;;;;;;4922056;29;20651;-90
2023/12/05 06:05:54;;;;;;;29.13;17.60;;;-0.40;99.90;;;;;;4935013;29;20551;-89
2023/12/05 06:08:20;;;;;;;30.93;18.23;;;-0.40;99.90;;;;;;4927040;29;20197;-89
2023/12/05 06:10:45;;;;;;;30.27;17.40;;;-0.40;99.90;;;;;;4918222;29;20182;-88
2023/12/05 06:13:11;;;;;;;29.87;17.83;;;-0.40;99.90;;;;;;4931522;29;20209;-88
2023/12/05 06:15:37;;;;;;;28.40;18.27;;;-0.40;99.90;;;;;;4924510;29;20564;-89
2023/12/05 06:18:03;;;;;;;29.10;17.70;;;-0.40;99.90;;;;;;4930206;29;20194;-89
2023/12/05 06:20:29;;;;;;;28.07;17.17;;;-0.40;99.90;;;;;;4917194;29;20194;-89
2023/12/05 06:22:54;;;;;;;29.33;17.50;;;-0.40;99.90;;;;;;4917564;29;20217;-90
2023/12/05 06:25:20;;;;;;;31.43;18.17;;;-0.40;99.90;;;;;;4916425;29;20190;-87
2023/12/05 06:27:46;;;;;;;28.03;16.77;;;-0.40;99.90;;;;;;4932523;29;20186;-88
2023/12/05 06:30:12;;;;;;;31.93;17.90;;;-0.40;99.90;;;;;;4921057;29;20721;-88
2023/12/05 06:32:38;;;;;;;28.80;17.90;;;-0.40;99.90;;;;;;4927843;29;20221;-87
2023/12/05 06:35:04;;;;;;;33.90;18.03;;;-0.40;99.90;;;;;;4917046;29;20182;-88
2023/12/05 06:37:29;;;;;;;30.13;17.50;;;-0.40;99.90;;;;;;4926428;29;20201;-87
2023/12/05 06:39:56;;;;;;;31.70;18.73;;;-0.40;99.90;;;;;;4922645;29;20685;-88
2023/12/05 06:42:22;;;;;;;32.23;18.77;;;-0.40;99.90;;;;;;4916428;29;20206;-87
2023/12/05 06:44:48;;;;;;;31.07;19.00;;;-0.40;99.90;;;;;;4928178;29;20288;-90
2023/12/05 06:47:14;;;;;;;34.03;19.73;;;-0.40;99.90;;;;;;4934470;29;20649;-89
2023/12/05 06:49:42;;;;;;;31.80;19.17;;;-0.40;99.90;;;;;;4915290;29;20261;-91
2023/12/05 06:52:11;;;;;;;32.83;19.33;;;-0.40;99.90;;;;;;4926318;29;20217;-90
2023/12/05 06:54:37;;;;;;;33.33;19.17;;;-0.40;99.90;;;;;;4933091;29;20224;-91
2023/12/05 06:57:03;;;;;;;31.50;19.73;;;-0.40;99.90;;;;;;4926665;29;20232;-89
2023/12/05 06:59:29;;;;;;;31.07;19.37;;;-0.40;99.90;;;;;;4934648;29;20674;-90
2023/12/05 07:01:55;;;;;;;33.67;19.87;;;-0.50;99.90;;;;;;4929742;29;20213;-91
2023/12/05 07:04:21;;;;;;;33.77;20.17;;;-0.50;99.90;;;;;;4923218;29;20244;-90
2023/12/05 07:06:47;;;;;;;30.63;19.00;;;-0.50;99.90;;;;;;4926125;29;20338;-90
2023/12/05 07:09:13;;;;;;;33.97;19.83;;;-0.50;99.90;;;;;;4923232;29;20681;-88
2023/12/05 07:11:39;;;;;;;32.80;20.13;;;-0.50;99.90;;;;;;4934762;29;20555;-90
2023/12/05 07:14:05;;;;;;;37.37;20.50;;;-0.40;99.90;;;;;;4915824;29;20238;-90
2023/12/05 07:16:31;;;;;;;35.87;20.93;;;-0.50;99.90;;;;;;4925134;29;20201;-90
2023/12/05 07:18:57;;;;;;;36.70;20.17;;;-0.40;99.90;;;;;;4935188;29;20182;-92
2023/12/05 07:21:22;;;;;;;34.17;20.80;;;-0.40;99.90;;;;;;4926046;29;20292;-91
2023/12/05 07:23:48;;;;;;;37.17;21.30;;;-0.40;99.90;;;;;;4934231;29;20201;-93
2023/12/05 07:26:15;;;;;;;35.13;21.00;;;-0.40;99.90;;;;;;4935589;29;20201;-90
2023/12/05 07:28:41;;;;;;;50.40;26.57;;;-0.40;99.90;;;;;;4916575;29;20182;-91
2023/12/05 07:31:07;;;;;;;41.90;24.07;;;-0.40;99.90;;;;;;4915372;29;20325;-89
2023/12/05 07:33:33;;;;;;;37.53;22.47;;;-0.40;99.90;;;;;;4917534;29;20202;-88
2023/12/05 07:36:02;;;;;;;37.00;22.53;;;-0.40;99.90;;;;;;4920264;29;20738;-88
2023/12/05 07:38:28;;;;;;;35.23;20.60;;;-0.40;99.90;;;;;;4914669;29;20549;-89
2023/12/05 07:40:54;;;;;;;34.57;21.40;;;-0.30;99.90;;;;;;4922087;29;20348;-87
2023/12/05 07:43:20;;;;;;;38.63;22.93;;;-0.30;99.90;;;;;;4922488;29;20194;-89
2023/12/05 07:45:45;;;;;;;35.07;21.37;;;-0.30;99.90;;;;;;4922590;29;20206;-89
2023/12/05 07:48:11;;;;;;;32.30;21.00;;;-0.20;99.90;;;;;;4923206;29;20200;-89
2023/12/05 07:50:37;;;;;;;36.00;21.07;;;-0.20;99.90;;;;;;4927094;29;20229;-92
2023/12/05 07:53:03;;;;;;;36.47;21.63;;;-0.10;99.90;;;;;;4921579;29;20206;-90
2023/12/05 07:55:28;;;;;;;34.70;20.50;;;-0.10;99.90;;;;;;4932799;29;20190;-92
2023/12/05 07:57:54;;;;;;;35.50;21.17;;;-0.10;99.90;;;;;;4921326;29;20186;-91
2023/12/05 08:00:20;;;;;;;33.03;20.07;;;0.00;99.90;;;;;;4918120;29;20250;-92
2023/12/05 08:02:46;;;;;;;31.37;19.53;;;0.00;99.90;;;;;;4925611;29;20214;-89
2023/12/05 08:05:12;;;;;;;31.93;19.63;;;0.00;99.90;;;;;;4934210;29;20197;-89
2023/12/05 08:07:39;;;;;;;31.00;19.37;;;0.00;99.90;;;;;;4933595;29;20213;-87
2023/12/05 08:10:05;;;;;;;32.23;19.60;;;0.10;99.90;;;;;;4930466;29;20685;-89
2023/12/05 08:12:31;;;;;;;29.80;19.30;;;0.10;99.90;;;;;;4930376;29;20216;-89
2023/12/05 08:14:57;;;;;;;31.43;20.20;;;0.00;99.90;;;;;;4926764;29;20194;-91
2023/12/05 08:17:23;;;;;;;31.37;19.47;;;0.00;99.90;;;;;;4921152;29;20604;-90
2023/12/05 08:19:48;;;;;;;30.43;18.97;;;0.00;99.90;;;;;;4924891;29;20561;-93
2023/12/05 08:22:14;;;;;;;30.67;19.13;;;0.10;99.90;;;;;;4931605;29;20632;-90
2023/12/05 08:24:40;;;;;;;31.57;20.00;;;0.10;99.90;;;;;;4936237;29;20213;-89
2023/12/05 08:27:06;;;;;;;32.53;20.37;;;0.10;99.90;;;;;;4920753;29;20221;-90
2023/12/05 08:29:31;;;;;;;34.10;21.03;;;0.10;99.90;;;;;;4923037;29;20190;-89
2023/12/05 08:31:58;;;;;;;34.03;20.10;;;0.10;99.90;;;;;;4927638;29;20296;-91
2023/12/05 08:34:24;;;;;;;30.93;19.20;;;0.20;99.90;;;;;;4932286;29;20239;-90
2023/12/05 08:36:50;;;;;;;31.00;19.50;;;0.20;99.90;;;;;;4933734;29;20792;-90
2023/12/05 08:39:18;;;;;;;35.37;19.40;;;0.20;99.90;;;;;;4934101;29;20194;-88
2023/12/05 08:41:44;;;;;;;31.40;19.37;;;0.30;99.90;;;;;;4927424;29;20214;-89
2023/12/05 08:44:09;;;;;;;30.23;19.03;;;0.20;99.90;;;;;;4926419;29;20198;-91
2023/12/05 08:46:35;;;;;;;34.80;19.70;;;0.30;99.90;;;;;;4929999;29;20225;-91
2023/12/05 08:49:01;;;;;;;30.30;20.00;;;0.30;99.90;;;;;;4933081;29;20195;-90
2023/12/05 08:51:27;;;;;;;32.60;20.00;;;0.40;99.90;;;;;;4938239;29;20360;-92
2023/12/05 08:53:53;;;;;;;28.23;18.80;;;0.40;99.90;;;;;;4939206;29;20256;-92
2023/12/05 08:56:18;;;;;;;32.57;20.43;;;0.30;99.90;;;;;;4921974;29;20204;-91
2023/12/05 08:58:44;;;;;;;32.93;18.77;;;0.40;99.90;;;;;;4923568;29;20196;-91
2023/12/05 09:01:11;;;;;;;29.83;18.73;;;0.40;99.90;;;;;;4930899;29;20620;-90
2023/12/05 09:03:37;;;;;;;31.83;19.77;;;0.40;99.90;;;;;;4922079;29;20243;-92
2023/12/05 09:06:02;;;;;;;35.10;21.07;;;0.40;99.90;;;;;;4934554;29;20214;-93
2023/12/05 09:08:29;;;;;;;38.40;22.30;;;0.40;99.90;;;;;;4922915;29;20221;-92
2023/12/05 09:10:57;;;;;;;34.13;20.40;;;0.40;99.90;;;;;;4918964;29;20201;-92
2023/12/05 09:13:23;;;;;;;39.30;23.57;;;0.40;99.90;;;;;;4929917;29;20257;-91
2023/12/05 09:15:49;;;;;;;28.47;18.83;;;0.50;99.90;;;;;;4921832;29;20188;-91
2023/12/05 09:18:15;;;;;;;32.50;18.70;;;0.50;99.90;;;;;;4925399;29;20646;-90
2023/12/05 09:20:41;;;;;;;28.97;18.20;;;0.50;99.90;;;;;;4919249;29;20193;-90
2023/12/05 09:23:07;;;;;;;28.70;17.07;;;0.50;99.90;;;;;;4920106;29;20284;-89
2023/12/05 09:25:36;;;;;;;29.00;18.03;;;0.50;99.90;;;;;;4936723;29;20555;-93
2023/12/05 09:28:02;;;;;;;28.83;17.67;;;0.50;99.90;;;;;;4939082;29;20198;-90
2023/12/05 09:30:28;;;;;;;28.17;18.37;;;0.50;99.90;;;;;;4931960;29;20611;-92
2023/12/05 09:32:54;;;;;;;29.70;18.57;;;0.50;99.90;;;;;;4934575;29;20214;-90
2023/12/05 09:35:23;;;;;;;27.33;17.70;;;0.50;99.90;;;;;;4920189;29;20194;-90
2023/12/05 09:37:49;;;;;;;27.63;17.77;;;0.50;99.90;;;;;;4919546;29;20268;-91
2023/12/05 09:40:14;;;;;;;25.23;17.50;;;0.50;99.90;;;;;;4920487;29;20659;-91
2023/12/05 09:42:47;;;;;;;29.57;18.07;;;0.50;99.90;;;;;;4926950;29;20206;-90
2023/12/05 09:45:17;;;;;;;28.73;17.70;;;0.60;99.90;;;;;;4920798;29;20203;-89
2023/12/05 09:47:46;;;;;;;27.13;17.07;;;0.60;99.90;;;;;;4920966;29;20187;-90
2023/12/05 09:50:12;;;;;;;27.37;17.80;;;0.60;99.90;;;;;;4917101;29;20655;-91
2023/12/05 09:52:38;;;;;;;28.30;18.57;;;0.60;99.90;;;;;;4919968;29;20244;-92
2023/12/05 09:55:05;;;;;;;31.27;18.20;;;0.60;99.90;;;;;;4936614;29;20204;-91
2023/12/05 09:57:31;;;;;;;27.90;17.80;;;0.60;99.90;;;;;;4936290;29;20201;-90
2023/12/05 09:59:57;;;;;;;27.80;18.17;;;0.70;99.90;;;;;;4936420;29;20194;-91
2023/12/05 10:02:24;;;;;;;27.40;17.87;;;0.70;99.90;;;;;;4927847;29;20582;-90
2023/12/05 10:05:04;;;;;;;27.80;18.07;;;0.70;99.90;;;;;;4931445;29;20242;-94
2023/12/05 10:07:30;;;;;;;32.07;20.13;;;0.70;99.90;;;;;;4917095;29;20348;-92
2023/12/05 10:09:58;;;;;;;27.27;18.10;;;0.80;99.90;;;;;;4917352;29;20193;-89
2023/12/05 10:12:24;;;;;;;28.73;18.17;;;0.80;99.90;;;;;;4918396;29;20289;-91
2023/12/05 10:14:51;;;;;;;28.43;19.07;;;0.80;99.90;;;;;;4923710;29;20191;-90
2023/12/05 10:17:17;;;;;;;31.97;18.63;;;0.80;99.90;;;;;;4917517;29;20198;-91
2023/12/05 10:19:43;;;;;;;28.33;18.17;;;0.80;99.90;;;;;;4920549;29;20211;-90
2023/12/05 10:22:09;;;;;;;30.53;19.13;;;0.80;99.90;;;;;;4935949;29;20681;-91
2023/12/05 10:24:42;;;;;;;32.07;18.97;;;0.80;99.90;;;;;;4933171;29;20197;-91
2023/12/05 10:27:08;;;;;;;29.57;18.40;;;0.80;99.90;;;;;;4926538;29;20225;-91
2023/12/05 10:29:39;;;;;;;31.00;19.43;;;0.80;99.90;;;;;;4929873;29;20197;-91
2023/12/05 10:32:10;;;;;;;31.23;18.93;;;0.90;99.90;;;;;;4917600;29;20293;-90
2023/12/05 10:35:01;;;;;;;28.27;18.47;;;0.90;99.90;;;;;;4930696;29;20646;-90
2023/12/05 10:37:28;;;;;;;30.33;19.00;;;0.90;99.90;;;;;;4937862;29;20193;-89
2023/12/05 10:39:56;;;;;;;30.97;19.47;;;0.90;99.90;;;;;;4938575;29;20197;-93
2023/12/05 10:42:28;;;;;;;32.60;19.90;;;1.00;99.90;;;;;;4920784;29;20257;-93
2023/12/05 10:44:54;;;;;;;32.60;19.50;;;1.00;99.90;;;;;;4918002;29;20714;-89
2023/12/05 10:47:19;;;;;;;29.00;18.83;;;0.90;99.90;;;;;;4933877;29;20695;-94
2023/12/05 10:49:47;;;;;;;29.13;18.37;;;0.90;99.90;;;;;;4930878;29;20193;-93
2023/12/05 10:52:13;;;;;;;29.00;19.00;;;1.00;99.90;;;;;;4938223;29;20345;-93
2023/12/05 10:54:41;;;;;;;29.30;19.17;;;1.00;99.90;;;;;;4930445;29;20186;-92
2023/12/05 10:57:10;;;;;;;30.23;18.97;;;1.00;99.90;;;;;;4922026;29;20194;-92
2023/12/05 10:59:42;;;;;;;29.70;18.87;;;1.00;99.90;;;;;;4918865;29;20190;-92
2023/12/05 11:02:14;;;;;;;30.53;18.20;;;1.00;99.90;;;;;;4927195;29;20213;-91
2023/12/05 11:04:41;;;;;;;29.37;17.83;;;1.00;99.90;;;;;;4925241;29;20264;-92
2023/12/05 11:07:11;;;;;;;27.07;18.43;;;1.10;99.90;;;;;;4941248;29;20230;-94
2023/12/05 11:09:43;;;;;;;27.10;17.10;;;1.10;99.90;;;;;;4928850;29;20269;-94
2023/12/05 11:12:12;;;;;;;29.23;19.20;;;1.10;99.90;;;;;;4918650;29;20754;-93
2023/12/05 11:14:41;;;;;;;29.07;19.13;;;1.20;99.90;;;;;;4919187;29;20186;-93
2023/12/05 11:17:17;;;;;;;30.43;20.77;;;1.20;99.90;;;;;;4916672;29;20198;-92
2023/12/05 11:20:11;;;;;;;29.63;19.30;;;1.20;99.90;;;;;;4909284;29;20725;-91
2023/12/05 11:22:55;;;;;;;30.73;18.83;;;1.30;99.90;;;;;;4919840;29;20223;-94
2023/12/05 11:25:47;;;;;;;29.57;19.10;;;1.20;99.90;;;;;;4922264;29;20177;-91
2023/12/05 11:28:32;;;;;;;28.10;17.60;;;1.30;99.90;;;;;;4917188;29;20190;-91
2023/12/05 11:31:16;;;;;;;28.77;19.07;;;1.20;99.90;;;;;;4916531;29;20313;-92
2023/12/05 11:33:51;;;;;;;29.37;19.07;;;1.30;99.90;;;;;;4917368;29;20174;-92
2023/12/05 11:36:40;;;;;;;32.63;19.03;;;1.20;99.90;;;;;;4924679;29;20189;-93
2023/12/05 11:39:06;;;;;;;28.43;19.73;;;1.30;99.90;;;;;;4910190;29;20205;-94
2023/12/05 11:41:32;;;;;;;28.63;18.03;;;1.30;99.90;;;;;;4928158;29;20202;-92
2023/12/05 11:44:13;;;;;;;28.17;18.47;;;1.30;99.90;;;;;;4935674;29;20192;-91
2023/12/05 11:46:43;;;;;;;26.63;18.17;;;1.30;99.90;;;;;;4935518;29;20209;-92
2023/12/05 11:49:09;;;;;;;29.40;19.17;;;1.30;99.90;;;;;;4923631;29;20182;-93
2023/12/05 11:51:38;;;;;;;30.30;19.17;;;1.20;99.90;;;;;;4925119;29;20259;-94
2023/12/05 11:54:09;;;;;;;26.83;17.80;;;1.20;99.90;;;;;;4916750;29;20542;-93
2023/12/05 11:56:35;;;;;;;29.80;18.13;;;1.20;99.90;;;;;;4919801;29;20185;-92
2023/12/05 11:59:16;;;;;;;30.60;19.40;;;1.20;99.90;;;;;;4935820;29;20184;-93
2023/12/05 12:01:43;;;;;;;33.53;18.17;;;1.30;99.90;;;;;;4935570;29;20209;-93
2023/12/05 12:04:22;;;;;;;33.83;19.13;;;1.40;99.90;;;;;;4935252;29;20251;-91
2023/12/05 12:06:50;;;;;;;29.67;18.13;;;1.40;99.90;;;;;;4905744;29;20325;-94
2023/12/05 12:09:16;;;;;;;29.23;18.90;;;1.40;99.90;;;;;;4935524;29;20249;-92
2023/12/05 12:11:43;;;;;;;30.30;18.30;;;1.40;99.90;;;;;;4935370;29;20296;-93
2023/12/05 12:14:14;;;;;;;30.00;18.73;;;1.40;99.90;;;;;;4927689;29;20260;-92
2023/12/05 12:16:39;;;;;;;30.57;18.10;;;1.40;99.90;;;;;;4927369;29;20213;-93
2023/12/05 12:19:11;;;;;;;27.17;18.00;;;1.50;99.90;;;;;;4935644;29;20166;-93
2023/12/05 12:21:38;;;;;;;25.70;17.73;;;1.50;99.90;;;;;;4925082;29;20302;-96
2023/12/05 12:24:05;;;;;;;29.30;19.00;;;1.50;99.90;;;;;;4922760;29;20190;-93
2023/12/05 12:26:33;;;;;;;29.97;18.93;;;1.50;99.90;;;;;;4935194;29;20296;-93
2023/12/05 12:29:09;;;;;;;28.53;18.27;;;1.50;99.90;;;;;;4935588;29;20198;-93
2023/12/05 12:31:35;;;;;;;29.53;18.93;;;1.50;99.90;;;;;;4916835;29;20202;-93